Aktualne dane pomiarowe

Uwaga, wersja testowa! Automatyczne pobieranie danych za pomocą narzędzi lub skryptów to umożliwiających jest zabronione.

Dane meteo z obszaru Polski uzyskane na podstawie depesz SYNOP pobieranych co godzinę z NWS. Najedź myszką na symbol przedstawiony w tabeli, aby uzyskać informacje co do jego znaczenia. Prosimy pamiętać, że to testowa wersja strony, która jeszcze nie jest ukończona. Stworzono również jest krótki FAQ dotyczący korzystania z tej podstrony Anomalie temperatury w chwili obecnej odniesione są do okresu referencyjnego 1951-2016. Okres ten będzie później zmieniony na 1981-2010. Kliknij ikonę aby pobrać plik CSV. Kliknij ikonę aby wygenerować mapę synoptyczną dla danego terminu.

Wybierz Datę:    

        

Jelenia Góra (12500)

Dane terminowe dla wybranej stacji. Kliknij datę, aby otrzymać dane z tego terminu dla wszystkich stacji.

TemperaturaZachmurzenieWiatrCiśnienieOpadyPogoda
 Data t td wb tx tn tg rh  Nt Nl Cl Cm Ch ws wd g1 g2 wx mslp ppp ch 24h 12h t ww ww w1 w2  
2019-07-15 23:00:00 14.8 9.6 11.6--- 7135.0wxwxwx3wx--31015.9 975.3 -0.2---------
2019-07-15 22:00:00 15.0 9.6 11.6--- 7030.0wxwxwx3wx--31016.0 975.4 0.2---------
2019-07-15 21:00:00 15.3 9.6 11.8--- 6950.0wxwxwx3wx--31016.0 975.5 0.5---------
2019-07-15 20:00:00 15.2 9.8 11.8--- 7050.0wxwxwx3wx--31016.0 975.5 0.4---------
2019-07-15 19:00:00 15.5 10.0 12.1--- 7050.0wxwxwx2wx--21015.7 975.2 0.1---------
2019-07-15 18:00:00 16.4 10.3 12.6 20.8 13.8- 6735.0wxwxwxwx4wx--41015.4 975.0 -0.1- 0.012------
2019-07-15 17:00:00 17.6 10.7 13.3--- 6435.0wxwxwxwx4wx--41015.3 975.1 -0.2---------
2019-07-15 16:00:00 19.0 10.5 13.8--- 5845.0wxwxwxwx4wx--41015.1 975.1 -0.4---------
2019-07-15 15:00:00 19.9 10.6 14.3--- 5535.0wxwxwxwx4wx--41015.0 975.1 -0.6---------
2019-07-15 14:00:00 20.4 10.8 14.6--- 5435.0wxwxwxwx3wx--31015.1 975.3 -0.9---------
2019-07-15 13:00:00 19.9 12.2 15.1--- 6130.0wxwxwx4wx--41015.4 975.5 -0.9---------
2019-07-15 12:00:00 18.8 10.6 13.8--- 5940.0wxwxwxwx3wx--31015.7 975.7 -0.9- 0.06------
2019-07-15 11:00:00 17.8 12.0 14.1--- 6930.0wxwxwx3wx--31016.4 976.2 -0.2---------
2019-07-15 10:00:00 16.5 12.3 13.7--- 7630.0wxwxwx3wx--31016.8 976.4 0.2---------
2019-07-15 09:00:00 14.9 12.4 13.2--- 8518.0wxwxwx3wx--31017.2 976.6 0.7---------
2019-07-15 08:00:00 14.8 11.9 12.8--- 8324.0wxwxwx4wx--41017.0 976.4 0.7---------
2019-07-15 07:00:00 14.1 12.5 13.0--- 9014.0wxwxwx3wx--31016.9 976.2 0.7---------
2019-07-15 06:00:00 13.8 12.4 12.8 14.3 11.5 10 9113.0wxwxwx3wx--31016.7 975.9 0.4 4.0 0.612wx-w1- 5.2
2019-07-15 05:00:00 13.6 12.2 12.6--- 918.0wxwxwx3wx--31016.5 975.7 0.1---wx---
2019-07-15 04:00:00 13.8 12.4 12.8--- 918.0wxwxwx3wx--31016.3 975.5 -0.4---wx---
2019-07-15 03:00:00 13.8 12.5 12.9--- 928.0wxwxwx2wx--21016.3 975.5 -0.4---wx-w1--
2019-07-15 02:00:00 13.8 13.2 13.3--- 968.0wxwxwx2wx--21016.4 975.6 -0.5---wx---
2019-07-15 01:00:00 12.4 12.1 12.1--- 984.0wxwxwx1wx--11016.9 975.9 -0.4---wx-w1w2--
2019-07-15 00:00:00 12.6 12.3 12.3--- 986.0wxwxwx1wx--11016.8 975.9 -0.3- 0.66wx---
2019-07-14 23:00:00 12.2 12.0 12.0--- 998.0wxwxwx1wx--11017.1 976.1 0.3---wx---
2019-07-14 22:00:00 11.9 11.6 11.6--- 984.0wxwxwx0---01017.4 976.3 1.3---wx---
2019-07-14 21:00:00 12.5 12.2 12.2--- 9810.0wxwxwx2wx--21017.2 976.2 1.0---------
2019-07-14 20:00:00 12.1 11.6 11.7--- 9710.0wx-wx1wx--11016.8 975.8 0.5---wx---
2019-07-14 19:00:00 13.3 12.5 12.7--- 9530.0wxwxwxwx0---01015.8 975.0 0.8---------
2019-07-14 18:00:00 14.2 12.9 13.3 21.8 14.1- 9245.0wxwxwxwx0--1301015.9 975.2 1.2- 3.012wx-w1--
2019-07-14 17:00:00 14.1 12.5 13.0--- 9011.0wxwxwx1wx-1311016.0 975.3 1.3---wx-w1w2--
2019-07-14 16:00:00 17.1 11.4 13.5--- 6919.0wxwxwx5wx101051014.4 974.2 0.0---wx-w1--
2019-07-14 15:00:00 20.9 12.3 15.5--- 5835.0wxwxwx4wx--41013.7 974.0 -0.5---------
2019-07-14 14:00:00 20.4 11.1 14.7--- 5535.0wxwxwx3wx---1013.8 974.0 -1.0---------
2019-07-14 13:00:00 20.4 10.8 14.6--- 5435.0wxwxwx4wx--41014.0 974.2 -1.1---------
2019-07-14 12:00:00 19.7 11.7 14.7--- 6035.0wxwxwx3wx--31014.4 974.5 -1.0- 0.16wx-w1--
2019-07-14 11:00:00 18.5 12.0 14.4--- 6629.0wxwxwx3wx--31015.1 975.0 -0.3---wx---
2019-07-14 10:00:00 16.4 12.0 13.5--- 7510.0wxwxwx3wx--31015.7 975.3 0.4---wx---
2019-07-14 09:00:00 16.3 11.4 13.2--- 7330.0wxwxwx3wx--31015.9 975.5 1.0---------
2019-07-14 08:00:00 15.6 12.2 13.3--- 8030.0wxwxwx3wx--31015.8 975.3 1.0---------
2019-07-14 07:00:00 15.0 12.5 13.3--- 8524.0wxwxwx3wx--31015.5 974.9 0.9---------
2019-07-14 06:00:00 14.1 12.8 13.2 16.3 9.5 8 9211.0wxwxwx2wx--21015.2 974.5 0.5 2.5 0.212----- 2.0
2019-07-14 05:00:00 13.6 13.0 13.1--- 966.0wxwxwx3wx--31015.0 974.3 0.3---wx---
2019-07-14 04:00:00 11.2 10.9 10.9--- 982.8wxwxwx0---01015.1 974.0 -0.2---wx---
2019-07-14 03:00:00 10.5 10.3 10.3--- 992.5wxwxwx0---01015.2 974.0 -0.4---wx-w1--
2019-07-14 02:00:00 10.3 10.1 10.1--- 991.2wxwxwx1wx--11015.2 974.0 -0.3---wx---
2019-07-14 01:00:00 10.0 9.8 9.8--- 991.3wxwxwx2wx--21015.5 974.2 -0.1---wx---
2019-07-14 00:00:00 10.0 9.8 9.8--- 990.8wxwxwx1wx--11015.7 974.4 0.6- 0.26wx-w1--
17.2 ms

 

Print Friendly, PDF & Email